• Join FlightAware (Why Join?)
  • Login
  • US Flag 
01:23AM EST


 

Airport Tracker/Info


-or-


 

Live Flight TrackerFlight Track Log ✈ SKW5631 ✈ 21-Apr-2013 ✈ KRNO - KSFO

Flight Track Log - Related Links

Times and Time Zones

All times are in EDT time to prevent confusion due to time zone crossing. See the SKW5631 flight status page for this flight to view local times or setup timezone preferences in your user account.

Time Position Orientation Groundspeed Altitude Reporting Facility
EDT Latitude Longitude Course Direction KTS MPH feet Rate Location/Type
05:51PM 39.4333 -119.7667 254° West 227 261 6,800  Level Northern Cal TRACON
05:52PM 39.3500 -119.7667 180° South 284 327 8,900 2,400 Climbing Northern Cal TRACON
05:53PM 39.4486 -120.0749 258° West  Level FlightAware Approximate
05:53PM 39.2667 -119.7667 180° South 298 343 11,700  Level Northern Cal TRACON
05:54PM 39.4236 -120.2117 254° West  Level FlightAware Approximate
05:54PM 39.1961 -119.8103 206° Southwest 320 368 14,300  Level Oakland Center
05:55PM 39.3943 -120.3471 254° West  Level FlightAware Approximate
05:55PM 39.1894 -119.9147 265° West 298 343 16,600  Level Oakland Center
05:56PM 39.3648 -120.4824 254° West  Level FlightAware Approximate
05:56PM 39.1836 -120.0469 267° West 308 354 19,000  Level Oakland Center
05:57PM 39.1761 -120.1608 265° West 315 362 21,000 1,740 Climbing Oakland Center
05:58PM 39.1711 -120.2783 267° West 328 377 22,600 1,440 Climbing Oakland Center
05:59PM 39.1642 -120.4042 266° West 349 402 24,000 1,380 Climbing Oakland Center
06:00PM 39.1583 -120.5353 267° West 365 420 25,500 1,380 Climbing Oakland Center
06:01PM 39.1322 -120.6656 256° West 381 438 26,900 1,200 Climbing Oakland Center
06:02PM 39.1061 -120.7986 256° West 384 442 28,000 480 Climbing Oakland Center
06:03PM 39.0778 -120.9358 255° West 396 456 28,000  Level Oakland Center
06:04PM 39.0344 -121.1000 251° West 408 470 28,000  Level Oakland Center
06:05PM 38.9675 -121.2214 235° Southwest 422 486 28,000  Level Oakland Center
06:06PM 38.9033 -121.3425 236° Southwest 416 479 28,000  Level Oakland Center
06:07PM 38.8397 -121.4628 236° Southwest 413 475 28,000  Level Oakland Center
06:08PM 38.7767 -121.5817 236° Southwest 410 472 28,000  Level Oakland Center
06:09PM 38.7131 -121.6997 235° Southwest 405 466 28,000  Level Oakland Center
06:10PM 38.6369 -121.8428 236° Southwest 408 470 28,000  Level Oakland Center
06:11PM 38.5817 -121.9467 236° Southwest 405 466 28,000  Level Oakland Center
06:12PM 38.5169 -122.0644 235° Southwest 404 465 28,000 -180 Level Oakland Center
06:13PM 38.4539 -122.1842 236° Southwest 407 468 27,700 -1,500 Descending Oakland Center
06:14PM 38.3783 -122.3247 236° Southwest 401 461 25,000 -2,400 Descending Oakland Center
06:15PM 38.3169 -122.4364 235° Southwest 387 445 22,900 -2,040 Descending Oakland Center
06:16PM 38.2600 -122.5425 236° Southwest 367 422 20,900 -1,920 Descending Oakland Center
06:17PM 38.2042 -122.6439 235° Southwest 355 409 19,000 -1,800 Descending Oakland Center
06:18PM 38.1514 -122.7419 236° Southwest 341 392 17,300 -1,740 Descending Oakland Center
06:19PM 38.0883 -122.8214 225° Southwest 336 387 15,500 -1,920 Descending Oakland Center
06:21PM 38.0237 -122.8183 138° Southeast  Level FlightAware Approximate
06:21PM 37.9500 -122.7333 138° Southeast 325 374 12,400  Level Northern Cal TRACON
06:21PM 37.9244 -122.7008 135° Southeast 326 375 11,700 -960 Descending Oakland Center
06:23PM 37.8594 -122.6331 141° Southeast 317 365 11,000 -420 Descending Oakland Center
06:23PM 37.8167 -122.5833 137° Southeast 313 360 11,100 60 Climbing Northern Cal TRACON
06:24PM 37.7500 -122.5167 142° Southeast 315 362 11,100 -60 Level Northern Cal TRACON
06:25PM 37.6833 -122.4500 142° Southeast 258 297 11,000  Descending Northern Cal TRACON
06:26PM 37.6333 -122.4000 142° Southeast 226 260 11,100  Climbing Northern Cal TRACON
06:27PM 37.6153 -122.3733 131° Southeast 229 264 11,000 -420 Descending Oakland Center
06:28PM 37.5583 -122.3386 154° Southeast 228 262 10,500 -960 Descending Oakland Center
06:29PM 37.5019 -122.3019 153° Southeast 229 264 9,100 -1,320 Descending Oakland Center
06:30PM 37.4456 -122.2664 153° Southeast 227 261 7,900 -1,080 Descending Oakland Center
06:31PM 37.4039 -122.2161 136° Southeast 226 260 7,000 -600 Descending Oakland Center
06:32PM 37.3811 -122.1519 114° Southeast 206 237 6,700 -840 Descending Oakland Center
06:33PM 37.4311 -122.1347 15° North 204 235 5,400 -1,320 Descending Oakland Center
06:34PM 37.4972 -122.1517 349° North 210 242 4,100 -1,080 Descending Oakland Center
06:35PM 37.5356 -122.1917 320° Northwest 190 219 3,300 -840 Descending Oakland Center